Accueil
METAR-TAF:

METAR-TAF

Aéroports :

Aéroport des Abruzzes

Pescara, Italie

latitude: 42-26N, longitude: 014-12E, altitude: 10 m

Observation

Le bulletin a été fait il y a 50 minutes, à 15:20 UTC
Vent 7 kt de est, variant entre nord-est et sud-est
Température 25°C
Humidité 44%
Pression 1016 hPa
Visibilité 10 km ou plus

METAR: LIBP 141520Z AUTO 08007KT 040V130 9999 NCD 25/12 Q1016

Heure: 18:10 (16:10 UTC)

Prévision

Le bulletin a été fait il y a 5 heures et 10 minutes, à 11:00 UTC
Prévision valable du 14 à 12 UTC au 15 à 12 UTC
Vent 12 kt de nord-est
Visibilité 10 km ou plus
Quelques nuages à une hauteur de 3000 ft
Evoluant progressivement
du 14 à 17 UTC au 14 à 19 UTC
Vent 5 kt de direction variable
Evoluant progressivement
du 15 à 08 UTC au 15 à 10 UTC
Vent 10 kt de est/nord-est

TAF: LIBP 141100Z 1412/1512 04012KT 9999 FEW030 BECMG 1417/1419 VRB05KT BECMG 1508/1510 06010KT

Observations et prévisions météorologiques de plus de 4000 aéroports (messages METAR et TAF).

Les stations disponibles sont représentées par des disques jaunes et rouges sur la carte.

Passer la souris dessus pour voir le nom de la station.

Cliquer dessus pour voir les observations et prévisions météorologiques.

Pour changer de carte: cliquez sur les boutons verts avec une croix noire pour zoomer, sur le bouton vert avec un tiret pour effectuer un zoom arrière, ou sur les flèches vertes pour les cartes adjacentes.


METAR-TAF: